Time;durP1;ratioP1;P1;durP2;ratioP2;P2;SDS_P1;SDS_P2;PMS_P1;PMS_P2;Temp;Humidity;BMP_temperature;BMP_pressure;BME280_temperature;BME280_humidity;BME280_pressure;Samples;Min_cycle;Max_cycle;Signal;HPM_P1;HPM_P2
2022/07/15 00:19:58;;;;;;;10.80;9.90;;;;;;;18.08;71.22;98281.25;433599;1267;97176;-41
2022/07/15 00:30:08;;;;;;;11.70;9.40;;;;;;;17.85;71.49;98277.60;433505;1267;110989;-41
2022/07/15 00:40:14;;;;;;;11.50;8.60;;;;;;;17.55;71.67;98288.39;433448;1267;108807;-41
2022/07/15 00:50:24;;;;;;;9.00;7.80;;;;;;;17.27;71.91;98297.20;433492;1267;96637;-41
2022/07/15 01:00:32;;;;;;;20.70;8.10;;;;;;;16.88;71.78;98301.27;433457;1267;108793;-41
2022/07/15 01:10:42;;;;;;;15.00;7.10;;;;;;;16.42;71.78;98314.92;433434;1267;97700;-42
2022/07/15 01:20:49;;;;;;;10.30;5.60;;;;;;;16.12;71.79;98319.27;434183;1257;111471;-40
2022/07/15 01:30:56;;;;;;;7.30;4.30;;;;;;;15.82;71.67;98342.73;433358;1267;108797;-43
2022/07/15 01:41:02;;;;;;;13.40;5.40;;;;;;;15.45;71.54;98349.35;433516;1267;97940;-45
2022/07/15 01:51:10;;;;;;;7.30;3.90;;;;;;;15.13;71.69;98348.63;433541;1267;108764;-42
2022/07/15 02:01:17;;;;;;;;;;;;;;;14.92;71.86;98349.55;433630;1265;98559;-41
2022/07/15 02:11:26;;;;;;;9.60;4.30;;;;;;;14.74;71.87;98342.55;433474;1267;110295;-41
2022/07/15 02:21:34;;;;;;;9.80;4.70;;;;;;;14.34;71.92;98332.85;433245;1267;109060;-44
2022/07/15 02:31:42;;;;;;;11.90;5.00;;;;;;;14.06;72.06;98382.87;432950;1270;97827;-40
2022/07/15 02:41:49;;;;;;;7.30;3.80;;;;;;;13.88;72.34;98397.12;432902;1270;108836;-42
2022/07/15 02:51:57;;;;;;;8.90;3.80;;;;;;;13.86;72.36;98405.39;433101;1270;96613;-41
2022/07/15 03:02:04;;;;;;;8.90;4.40;;;;;;;13.79;72.37;98423.11;433133;1269;111100;-42
2022/07/15 03:12:12;;;;;;;9.70;4.40;;;;;;;13.80;72.50;98431.73;432949;1269;108752;-45
2022/07/15 03:22:19;;;;;;;10.40;2.90;;;;;;;13.75;72.25;98438.92;432865;1267;97522;-41
2022/07/15 03:32:27;;;;;;;8.40;3.20;;;;;;;14.02;72.28;98451.96;433065;1269;111104;-42
2022/07/15 03:42:34;;;;;;;8.00;3.50;;;;;;;15.51;71.45;98463.34;432965;1268;108846;-42
2022/07/15 03:52:42;;;;;;;6.90;2.80;;;;;;;17.56;70.09;98464.92;433133;1270;97884;-44
2022/07/15 04:02:49;;;;;;;7.10;2.20;;;;;;;19.58;67.97;98471.11;433025;1270;111243;-43
2022/07/15 04:12:56;;;;;;;6.50;1.70;;;;;;;21.07;65.69;98478.67;432501;1270;108870;-41
2022/07/15 04:23:03;;;;;;;7.40;2.00;;;;;;;22.09;63.66;98489.34;432698;1269;97563;-41
2022/07/15 04:33:11;;;;;;;5.40;2.00;;;;;;;23.08;62.19;98496.42;432785;1270;111045;-41
2022/07/15 04:43:18;;;;;;;6.60;2.50;;;;;;;23.63;60.70;98508.50;433114;1269;108950;-41
2022/07/15 04:53:26;;;;;;;2.50;1.60;;;;;;;24.33;59.31;98522.98;433068;1269;97502;-40
2022/07/15 05:03:33;;;;;;;6.30;1.90;;;;;;;24.77;58.19;98538.26;433246;1269;111166;-44
2022/07/15 05:13:39;;;;;;;8.80;2.90;;;;;;;24.40;56.40;98561.52;433125;1270;108765;-43
2022/07/15 05:23:47;;;;;;;5.60;2.00;;;;;;;24.06;55.60;98563.88;432931;1269;99570;-44
2022/07/15 05:34:15;;;;;;;4.60;1.70;;;;;;;23.85;55.52;98573.62;433003;1270;108769;-42
2022/07/15 06:01:27;;;;;;;4.20;2.10;;;;;;;23.01;52.09;98605.10;420555;1309;636527;-42
2022/07/15 06:11:35;;;;;;;4.10;1.90;;;;;;;22.58;51.92;98617.97;430348;1277;401691;-41
2022/07/15 06:21:42;;;;;;;5.00;1.60;;;;;;;22.34;51.49;98633.36;430331;1277;106520;-41
2022/07/15 06:41:56;;;;;;;8.60;2.20;;;;;;;22.30;51.04;98659.44;432463;1274;108886;-46
2022/07/15 06:52:03;;;;;;;3.50;1.50;;;;;;;22.53;50.80;98669.64;432412;1274;95703;-44
2022/07/15 07:02:10;;;;;;;4.50;1.40;;;;;;;22.71;49.91;98682.96;432518;1274;95490;-41
2022/07/15 07:12:17;;;;;;;2.00;1.10;;;;;;;22.71;49.25;98691.20;432384;1274;107672;-40
2022/07/15 07:22:23;;;;;;;3.40;1.00;;;;;;;22.34;48.70;98695.00;432375;1274;108715;-43
2022/07/15 07:32:30;;;;;;;6.10;1.70;;;;;;;22.29;48.80;98700.08;432321;1273;108340;-41
2022/07/15 07:42:44;;;;;;;4.00;0.80;;;;;;;22.21;48.47;98703.92;432263;1274;96630;-44
2022/07/15 07:52:53;;;;;;;5.10;0.80;;;;;;;22.58;47.36;98718.48;432208;1274;96599;-45
2022/07/15 08:03:01;;;;;;;2.30;1.40;;;;;;;22.28;46.17;98724.29;432609;1271;107612;-41
2022/07/15 08:13:08;;;;;;;4.30;0.50;;;;;;;22.54;46.19;98726.92;432652;1271;108870;-42
2022/07/15 08:43:29;;;;;;;3.30;1.00;;;;;;;22.51;44.21;98733.92;432456;1271;109685;-42
2022/07/15 08:53:36;;;;;;;4.70;0.60;;;;;;;22.57;43.49;98737.42;432617;1271;108801;-42
2022/07/15 09:03:44;;;;;;;3.00;0.70;;;;;;;22.80;42.93;98739.51;432714;1271;108831;-43
2022/07/15 09:13:50;;;;;;;;;;;;;;;23.22;42.63;98741.06;432639;1271;95840;-41
2022/07/15 09:24:16;;;;;;;3.30;1.10;;;;;;;22.56;42.40;98750.96;432664;1271;109764;-41
2022/07/15 09:34:26;;;;;;;1.60;0.80;;;;;;;22.34;42.12;98759.38;432614;1271;109201;-44
2022/07/15 09:44:34;;;;;;;4.20;0.60;;;;;;;22.34;42.42;98756.04;432612;1271;108791;-43
2022/07/15 09:54:44;;;;;;;3.10;0.50;;;;;;;22.12;42.27;98762.55;432704;1271;97235;-41
2022/07/15 10:04:51;;;;;;;3.50;0.60;;;;;;;22.06;42.72;98762.71;432655;1269;109697;-42
2022/07/15 10:15:06;;;;;;;1.80;0.90;;;;;;;22.30;42.49;98759.41;432496;1271;108908;-41
2022/07/15 10:25:22;;;;;;;3.80;0.90;;;;;;;21.58;42.48;98763.77;432652;1271;108963;-39
2022/07/15 10:35:48;;;;;;;2.90;1.20;;;;;;;21.85;43.06;98767.60;432505;1270;96341;-41
2022/07/15 10:46:12;;;;;;;3.50;0.80;;;;;;;21.61;42.93;98774.16;432516;1273;109736;-45
2022/07/15 10:56:35;;;;;;;2.00;0.80;;;;;;;22.34;42.11;98769.49;432637;1271;109075;-42
2022/07/15 11:07:13;;;;;;;4.90;1.20;;;;;;;22.79;41.30;98770.33;432602;1271;107859;-43
2022/07/15 11:17:37;;;;;;;3.10;0.70;;;;;;;22.26;40.16;98785.13;432658;1270;95717;-41
2022/07/15 11:27:55;;;;;;;3.70;0.60;;;;;;;22.07;40.60;98782.54;432551;1272;108789;-40
2022/07/15 11:38:00;;;;;;;;;;;;;;;21.75;40.63;98790.09;432685;1271;108916;-43
2022/07/15 11:48:07;;;;;;;4.40;0.70;;;;;;;21.63;40.69;98787.84;432744;1271;96545;-45
2022/07/15 11:58:15;;;;;;;3.70;0.70;;;;;;;21.48;40.96;98790.06;432720;1271;95299;-43
2022/07/15 12:08:40;;;;;;;1.70;0.80;;;;;;;21.68;41.04;98787.04;432625;1271;109856;-42
2022/07/15 12:28:54;;;;;;;3.80;0.70;;;;;;;22.01;40.55;98788.19;432614;1271;108850;-46
2022/07/15 12:39:09;;;;;;;3.50;0.80;;;;;;;22.30;40.64;98787.38;432499;1271;95606;-42
2022/07/15 12:49:42;;;;;;;2.00;0.70;;;;;;;21.89;40.49;98798.02;432441;1270;109699;-40
2022/07/15 12:59:52;;;;;;;4.50;0.80;;;;;;;21.55;40.39;98796.99;432728;1271;108975;-42
2022/07/15 13:10:00;;;;;;;4.00;1.10;;;;;;;21.53;40.58;98794.81;432423;1270;109161;-43
2022/07/15 13:20:09;;;;;;;6.40;1.00;;;;;;;21.74;40.40;98790.10;432665;1271;96836;-41
2022/07/15 13:30:17;;;;;;;3.60;1.50;;;;;;;21.13;39.61;98796.07;432886;1271;109791;-45
2022/07/15 13:40:24;;;;;;;3.20;0.90;;;;;;;21.23;39.86;98797.26;432574;1272;108802;-44
2022/07/15 14:00:56;;;;;;;1.80;0.70;;;;;;;21.60;39.14;98794.98;432569;1271;96384;-43
2022/07/15 14:11:04;;;;;;;2.00;0.70;;;;;;;21.77;39.06;98795.92;432900;1271;109484;-41
2022/07/15 14:21:12;;;;;;;3.60;0.80;;;;;;;21.44;38.78;98802.13;432752;1271;108743;-41
2022/07/15 14:31:18;;;;;;;;;;;;;;;21.25;38.32;98807.65;432941;1270;108610;-43
2022/07/15 14:41:26;;;;;;;3.10;0.80;;;;;;;21.06;38.47;98802.96;432842;1271;96315;-42
2022/07/15 14:51:33;;;;;;;2.70;1.40;;;;;;;20.84;38.37;98807.83;432865;1270;96526;-43
2022/07/15 15:01:41;;;;;;;3.80;1.20;;;;;;;20.88;38.31;98797.84;432769;1271;109682;-42
2022/07/15 15:11:49;;;;;;;3.80;1.30;;;;;;;21.36;38.35;98806.35;432866;1271;108416;-44
2022/07/15 15:21:56;;;;;;;4.10;1.00;;;;;;;21.02;37.80;98812.38;432832;1271;108827;-41
2022/07/15 15:32:06;;;;;;;2.30;0.90;;;;;;;20.65;38.13;98813.65;432910;1270;96118;-43
2022/07/15 15:42:14;;;;;;;3.00;0.90;;;;;;;20.46;38.09;98812.82;433073;1271;109436;-41
2022/07/15 15:52:28;;;;;;;5.50;1.80;;;;;;;20.04;38.52;98818.66;432885;1271;108819;-42
2022/07/15 16:02:35;;;;;;;4.60;1.40;;;;;;;19.86;38.94;98816.93;432766;1270;109157;-42
2022/07/15 16:12:42;;;;;;;16.40;2.30;;;;;;;19.95;39.38;98820.85;432881;1271;95323;-42
2022/07/15 16:22:53;;;;;;;3.50;1.50;;;;;;;20.04;39.29;98820.11;432844;1270;109739;-42
2022/07/15 16:33:02;;;;;;;4.70;1.50;;;;;;;19.96;39.33;98823.48;432890;1270;108807;-46
2022/07/15 16:43:09;;;;;;;3.70;0.80;;;;;;;19.67;39.53;98828.23;432892;1271;108812;-44
2022/07/15 16:53:15;;;;;;;2.70;1.60;;;;;;;19.43;40.10;98827.44;433199;1269;96172;-44
2022/07/15 17:03:23;;;;;;;2.20;0.90;;;;;;;19.36;40.48;98829.36;433083;1269;109714;-43
2022/07/15 17:13:30;;;;;;;3.10;0.90;;;;;;;19.14;40.64;98827.77;433197;1270;108945;-42
2022/07/15 17:33:44;;;;;;;6.40;1.00;;;;;;;18.89;41.74;98822.97;433189;1270;109961;-42
2022/07/15 17:43:52;;;;;;;1.70;0.90;;;;;;;18.85;41.91;98820.01;433198;1271;108842;-41
2022/07/15 17:54:00;;;;;;;3.70;1.20;;;;;;;18.64;42.10;98821.85;433054;1269;109622;-45
2022/07/15 18:04:05;;;;;;;4.80;1.20;;;;;;;18.38;42.42;98828.62;433107;1270;95622;-41
2022/07/15 18:14:14;;;;;;;7.80;1.30;;;;;;;18.10;42.88;98829.21;432542;1269;597094;-41
2022/07/15 18:24:21;;;;;;;4.50;1.40;;;;;;;17.89;43.52;98831.38;433206;1271;108828;-41
2022/07/15 18:34:29;;;;;;;4.70;1.70;;;;;;;17.69;43.93;98836.77;433164;1269;95316;-42
2022/07/15 18:44:36;;;;;;;11.70;1.80;;;;;;;17.49;44.48;98839.30;433121;1270;108996;-43
2022/07/15 18:54:44;;;;;;;3.20;1.50;;;;;;;17.17;45.31;98850.48;432871;1271;108603;-43
2022/07/15 19:04:51;;;;;;;6.90;1.60;;;;;;;16.77;45.72;98858.44;433151;1269;107148;-42
2022/07/15 19:25:08;;;;;;;11.50;4.40;;;;;;;16.09;47.36;98873.92;433123;1271;109495;-44
2022/07/15 19:35:16;;;;;;;6.40;2.80;;;;;;;15.79;47.99;98879.84;433172;1271;109213;-42
2022/07/15 19:45:23;;;;;;;6.70;2.60;;;;;;;15.59;49.18;98889.17;433116;1270;108872;-42
2022/07/15 19:55:31;;;;;;;4.80;2.70;;;;;;;15.33;49.40;98895.25;432977;1271;96188;-45
2022/07/15 20:05:39;;;;;;;6.00;2.80;;;;;;;15.13;50.29;98894.58;433136;1269;109971;-45
2022/07/15 20:15:46;;;;;;;4.10;2.40;;;;;;;14.84;50.90;98894.95;433251;1271;108747;-41
2022/07/15 20:25:54;;;;;;;3.70;1.90;;;;;;;14.50;50.99;98903.75;433022;1270;95694;-42
2022/07/15 20:36:01;;;;;;;3.90;2.10;;;;;;;14.33;51.70;98906.46;433155;1269;96150;-43
2022/07/15 20:46:09;;;;;;;8.50;2.40;;;;;;;14.20;52.29;98902.57;433212;1270;109992;-42
2022/07/15 20:56:16;;;;;;;10.60;2.20;;;;;;;14.10;52.84;98906.70;433243;1269;108819;-41
2022/07/15 21:06:24;;;;;;;5.70;2.60;;;;;;;14.05;52.97;98902.64;433358;1270;95995;-44
2022/07/15 21:16:32;;;;;;;12.30;4.00;;;;;;;14.05;53.60;98902.52;433193;1270;109772;-41
2022/07/15 21:26:45;;;;;;;8.50;4.50;;;;;;;13.86;53.60;98897.53;433329;1270;108727;-43
2022/07/15 21:36:52;;;;;;;8.90;4.00;;;;;;;13.54;54.19;98906.36;433259;1270;108787;-42
2022/07/15 21:47:00;;;;;;;7.60;4.60;;;;;;;13.30;54.76;98912.33;433335;1271;95652;-42
2022/07/15 21:57:08;;;;;;;6.50;3.40;;;;;;;13.19;55.28;98919.68;433356;1269;109752;-41
2022/07/15 22:07:16;;;;;;;10.40;3.90;;;;;;;13.04;55.53;98920.67;433288;1269;109047;-41
2022/07/15 22:17:24;;;;;;;11.90;3.90;;;;;;;12.98;55.88;98919.55;433253;1269;96216;-41
2022/07/15 22:27:31;;;;;;;6.20;3.50;;;;;;;12.77;56.07;98920.98;433250;1271;108676;-43
2022/07/15 22:37:38;;;;;;;5.90;3.80;;;;;;;12.62;56.40;98914.94;433321;1270;109223;-42
2022/07/15 22:47:45;;;;;;;5.80;3.60;;;;;;;12.42;56.73;98911.95;433272;1271;108651;-48
2022/07/15 22:57:53;;;;;;;6.40;3.00;;;;;;;12.27;57.19;98909.73;433132;1270;98006;-43
2022/07/15 23:08:00;;;;;;;7.10;2.90;;;;;;;12.40;57.60;98904.12;433153;1271;109234;-43
2022/07/15 23:18:07;;;;;;;8.80;3.90;;;;;;;12.46;57.78;98900.08;433351;1270;96730;-43
2022/07/15 23:28:15;;;;;;;8.60;4.10;;;;;;;12.35;57.76;98897.44;433353;1271;111051;-43
2022/07/15 23:38:22;;;;;;;9.60;3.50;;;;;;;12.11;57.98;98898.36;433234;1270;109199;-44
2022/07/15 23:58:36;;;;;;;11.20;3.50;;;;;;;12.04;58.65;98897.87;433268;1271;108857;-46
